Time;durP1;ratioP1;P1;durP2;ratioP2;P2;SDS_P1;SDS_P2;PMS_P1;PMS_P2;Temp;Humidity;BMP_temperature;BMP_pressure;BME280_temperature;BME280_humidity;BME280_pressure;Samples;Min_cycle;Max_cycle;Signal;HPM_P1;HPM_P2
2022/12/17 13:06:49;;;;;;;;;;;;;;;11.56;44.39;101801.66;4970958;28;98326;-65
2022/12/17 13:09:15;;;;;;;;;;;;;;;11.54;44.79;101804.59;4934964;28;98125;-69
2022/12/17 13:12:03;;;;;;;;;;;;;;;11.53;44.61;101810.25;4972655;28;99947;-69
2022/12/17 13:14:43;;;;;;;;;;;;;;;11.52;44.64;101816.72;4959669;28;99465;-69
2022/12/17 13:17:15;;;;;;;;;;;;;;;11.50;44.62;101813.41;4971940;28;98722;-67
2022/12/17 13:19:46;;;;;;;;;;;;;;;11.50;44.64;101810.72;4967848;28;99416;-68
2022/12/17 13:22:15;;;;;;;;;;;;;;;11.49;44.66;101807.19;4952668;28;98019;-67
2022/12/17 13:24:49;;;;;;;;;;;;;;;11.49;44.75;101814.47;4970875;28;100400;-69
2022/12/17 13:27:34;;;;;;;;;;;;;;;11.48;44.44;101813.66;4940037;28;98600;-65
2022/12/17 13:30:21;;;;;;;;;;;;;;;11.47;44.65;101820.09;4972774;28;101751;-69
2022/12/17 13:32:50;;;;;;;;;;;;;;;11.46;44.82;101820.34;4967629;28;98125;-69
2022/12/17 13:35:39;;;;;;;;;;;;;;;11.45;44.63;101824.13;4971287;28;98438;-69
2022/12/17 13:38:13;;;;;;;;;;;;;;;11.43;44.82;101818.94;4939615;28;99535;-69
2022/12/17 13:41:06;;;;;;;;;;;;;;;11.43;44.67;101828.94;4972050;28;97916;-66
2022/12/17 13:43:37;;;;;;;;;;;;;;;11.40;44.70;101827.56;4939491;28;98268;-65
2022/12/17 13:46:03;;;;;;;;;;;;;;;11.37;44.49;101836.13;4947619;28;98151;-65
2022/12/17 13:48:29;;;;;;;;;;;;;;;11.37;44.64;101835.31;4931191;28;127883;-69
2022/12/17 13:50:58;;;;;;;;;;;;;;;11.36;44.64;101841.75;4950674;28;98217;-69
2022/12/17 13:53:24;;;;;;;;;;;;;;;11.34;44.81;101841.19;4954811;28;98161;-69
2022/12/17 13:55:54;;;;;;;;;;;;;;;11.32;44.77;101841.44;4967724;28;105476;-69
2022/12/17 13:58:22;;;;;;;;;;;;;;;11.31;44.82;101848.69;4952452;28;124787;-69
2022/12/17 14:00:48;;;;;;;;;;;;;;;11.31;44.78;101845.16;4918697;28;98647;-65
2022/12/17 14:03:18;;;;;;;;;;;;;;;11.30;44.52;101844.34;4951973;28;98086;-68
2022/12/17 14:05:44;;;;;;;;;;;;;;;11.29;44.68;101850.00;4949478;28;121563;-69
2022/12/17 14:08:17;;;;;;;;;;;;;;;11.28;44.56;101848.38;4931957;28;99973;-65
2022/12/17 14:10:51;;;;;;;;;;;;;;;11.28;44.86;101851.88;4954689;28;112418;-65
2022/12/17 14:13:17;;;;;;;;;;;;;;;11.27;44.58;101865.59;4950636;28;106094;-69
2022/12/17 14:15:47;;;;;;;;;;;;;;;11.26;44.54;101861.25;4957332;28;128883;-69
2022/12/17 14:18:15;;;;;;;;;;;;;;;11.26;44.62;101872.88;4937774;28;117256;-66
2022/12/17 14:20:41;;;;;;;;;;;;;;;11.25;44.74;101873.94;4951083;28;122561;-69
2022/12/17 14:23:21;;;;;;;;;;;;;;;11.24;44.50;101872.31;4950674;28;122519;-65
2022/12/17 14:25:48;;;;;;;;;;;;;;;11.25;44.64;101871.25;4939796;28;124942;-65
2022/12/17 14:28:30;;;;;;;;;;;;;;;11.24;44.79;101879.59;4951380;28;98744;-69
2022/12/17 14:31:21;;;;;;;;;;;;;;;11.23;44.60;101888.72;4954280;28;123280;-65
2022/12/17 14:33:47;;;;;;;;;;;;;;;11.21;44.62;101894.38;4954534;28;98337;-65
2022/12/17 14:36:18;;;;;;;;;;;;;;;11.20;45.00;101898.13;4938863;28;98563;-69
2022/12/17 14:39:01;;;;;;;;;;;;;;;11.19;44.59;101895.66;4967472;28;99151;-69
2022/12/17 14:44:20;;;;;;;;;;;;;;;11.17;44.62;101895.91;4966165;28;99382;-69
2022/12/17 14:46:46;;;;;;;;;;;;;;;11.16;44.83;101898.81;4940742;28;98533;-69
2022/12/17 14:49:18;;;;;;;;;;;;;;;11.15;44.72;101906.09;4953244;28;98561;-69
2022/12/17 14:51:44;;;;;;;;;;;;;;;11.12;44.81;101906.59;4936147;28;99145;-69
2022/12/17 14:54:16;;;;;;;;;;;;;;;11.11;44.67;101909.50;4937506;28;120075;-65
2022/12/17 14:56:43;;;;;;;;;;;;;;;11.10;44.74;101911.41;4951913;28;98288;-69
2022/12/17 14:59:35;;;;;;;;;;;;;;;11.09;44.52;101919.75;4937049;28;125718;-65
2022/12/17 15:02:24;;;;;;;;;;;;;;;11.08;44.68;101924.28;4954865;28;98200;-69
2022/12/17 15:04:51;;;;;;;;;;;;;;;11.07;44.56;101914.56;4950209;28;99198;-69
2022/12/17 15:07:24;;;;;;;;;;;;;;;11.06;44.85;101919.13;4950266;28;119005;-69
2022/12/17 15:09:51;;;;;;;;;;;;;;;11.05;44.49;101930.19;4949196;28;98332;-69
2022/12/17 15:12:18;;;;;;;;;;;;;;;11.03;44.65;101935.78;4957602;28;98017;-65
2022/12/17 15:14:45;;;;;;;;;;;;;;;11.02;44.60;101947.66;4955018;28;98225;-65
2022/12/17 15:17:11;;;;;;;;;;;;;;;11.01;44.88;101940.63;4947412;28;98428;-69
2022/12/17 15:19:37;;;;;;;;;;;;;;;11.00;44.82;101943.53;4952615;27;98590;-65
2022/12/17 15:22:03;;;;;;;;;;;;;;;10.99;44.60;101941.91;4942601;28;126858;-65
2022/12/17 15:24:29;;;;;;;;;;;;;;;10.97;44.83;101950.22;4925901;28;98259;-69
2022/12/17 15:26:55;;;;;;;;;;;;;;;10.97;44.90;101954.81;4941276;28;127798;-72
2022/12/17 15:29:23;;;;;;;;;;;;;;;10.95;44.85;101956.91;4938418;28;98983;-69
2022/12/17 15:31:49;;;;;;;;;;;;;;;10.95;44.97;101963.13;4942154;28;98532;-65
2022/12/17 15:34:15;;;;;;;;;;;;;;;10.94;44.90;101968.75;4956411;28;98005;-65
2022/12/17 15:36:41;;;;;;;;;;;;;;;10.93;44.43;101967.13;4940289;28;127555;-65
2022/12/17 15:39:08;;;;;;;;;;;;;;;10.93;44.41;101967.94;4942130;28;114806;-69
2022/12/17 15:44:18;;;;;;;;;;;;;;;10.91;44.62;101964.66;4956471;28;101658;-65
2022/12/17 15:46:44;;;;;;;;;;;;;;;10.90;44.97;101965.72;4952230;28;126706;-65
2022/12/17 15:49:10;;;;;;;;;;;;;;;10.90;44.79;101960.31;4952930;28;107950;-65
2022/12/17 15:51:36;;;;;;;;;;;;;;;10.90;44.82;101962.19;4938806;28;127436;-65
2022/12/17 15:54:02;;;;;;;;;;;;;;;10.89;44.54;101968.66;4956017;28;122801;-68
2022/12/17 15:56:28;;;;;;;;;;;;;;;10.87;44.76;101968.03;4953467;28;98328;-69
2022/12/17 15:58:57;;;;;;;;;;;;;;;10.87;44.72;101968.03;4956855;28;99927;-68
2022/12/17 16:01:23;;;;;;;;;;;;;;;10.86;44.67;101967.22;4930501;28;98213;-71
2022/12/17 16:03:52;;;;;;;;;;;;;;;10.86;44.88;101969.13;4944963;28;123481;-68
2022/12/17 16:06:18;;;;;;;;;;;;;;;10.86;44.79;101971.81;4956213;28;98515;-71
2022/12/17 16:08:44;;;;;;;;;;;;;;;10.84;44.78;101972.03;4954844;28;127503;-69
2022/12/17 16:11:11;;;;;;;;;;;;;;;10.84;44.81;101973.91;4941289;28;117906;-69
2022/12/17 16:13:37;;;;;;;;;;;;;;;10.82;44.63;101974.97;4957084;28;119737;-65
2022/12/17 16:16:03;;;;;;;;;;;;;;;10.82;44.89;101977.66;4936956;28;113907;-65
2022/12/17 16:18:29;;;;;;;;;;;;;;;10.82;44.86;101980.34;4942270;28;98200;-69
2022/12/17 16:21:01;;;;;;;;;;;;;;;10.82;44.79;101984.94;4941590;28;98057;-69
2022/12/17 16:23:27;;;;;;;;;;;;;;;10.80;44.62;101990.53;4953749;28;98185;-67
2022/12/17 16:26:00;;;;;;;;;;;;;;;10.81;44.58;101989.50;4952678;28;127141;-69
2022/12/17 16:28:26;;;;;;;;;;;;;;;10.81;44.97;101986.00;4950017;28;98503;-69
2022/12/17 16:30:59;;;;;;;;;;;;;;;10.82;44.57;101991.16;4940454;27;99349;-65
2022/12/17 16:33:25;;;;;;;;;;;;;;;10.82;44.78;101990.34;4951998;28;97955;-66
2022/12/17 16:35:52;;;;;;;;;;;;;;;10.80;44.64;101987.84;4939898;28;101510;-69
2022/12/17 16:38:18;;;;;;;;;;;;;;;10.79;44.76;101994.31;4941854;28;123033;-65
2022/12/17 16:40:43;;;;;;;;;;;;;;;10.80;44.96;102001.34;4951914;28;98199;-69
2022/12/17 16:43:09;;;;;;;;;;;;;;;10.79;44.86;101994.31;4953701;28;122822;-69
2022/12/17 16:45:37;;;;;;;;;;;;;;;10.79;44.69;101997.00;4955169;28;127692;-69
2022/12/17 16:48:03;;;;;;;;;;;;;;;10.78;44.37;101997.25;4940618;28;124876;-69
2022/12/17 16:50:29;;;;;;;;;;;;;;;10.76;44.47;102002.03;4937082;28;127338;-69
2022/12/17 16:52:55;;;;;;;;;;;;;;;10.77;44.82;102009.09;4956753;28;99014;-67
2022/12/17 16:55:21;;;;;;;;;;;;;;;10.77;45.20;102018.00;4923593;28;129524;-72
2022/12/17 16:57:47;;;;;;;;;;;;;;;10.77;44.87;102007.22;4925534;28;128357;-68
2022/12/17 17:00:13;;;;;;;;;;;;;;;10.76;44.99;102007.44;4958295;28;125830;-71
2022/12/17 17:02:39;;;;;;;;;;;;;;;10.76;44.84;102007.44;4955808;28;117350;-67
2022/12/17 17:05:05;;;;;;;;;;;;;;;10.74;44.54;102004.97;4971164;28;121671;-71
2022/12/17 17:07:31;;;;;;;;;;;;;;;10.76;44.86;102015.53;4947919;28;126572;-65
2022/12/17 17:09:57;;;;;;;;;;;;;;;10.74;44.75;102021.16;4938491;28;128535;-65
2022/12/17 17:12:24;;;;;;;;;;;;;;;10.74;44.46;102021.16;4937057;28;123673;-69
2022/12/17 17:14:50;;;;;;;;;;;;;;;10.73;44.89;102027.63;4950430;28;99775;-65
2022/12/17 17:17:16;;;;;;;;;;;;;;;10.73;44.46;102027.63;4951167;28;100103;-65
2022/12/17 17:19:41;;;;;;;;;;;;;;;10.74;44.65;102028.44;4937183;28;124776;-69
2022/12/17 17:22:07;;;;;;;;;;;;;;;10.74;44.81;102031.13;4953102;28;122540;-70
2022/12/17 17:24:33;;;;;;;;;;;;;;;10.73;44.71;102027.63;4941623;28;128394;-66
2022/12/17 17:26:59;;;;;;;;;;;;;;;10.73;44.52;102027.63;4949958;28;128374;-66
2022/12/17 17:29:25;;;;;;;;;;;;;;;10.73;44.49;102035.69;4935572;28;98012;-66
2022/12/17 17:31:51;;;;;;;;;;;;;;;10.72;44.87;102039.44;4953288;28;123095;-66
2022/12/17 17:34:17;;;;;;;;;;;;;;;10.73;44.47;102038.41;4953848;28;98307;-65
2022/12/17 17:36:43;;;;;;;;;;;;;;;10.73;44.94;102035.69;4949788;28;98451;-66
2022/12/17 17:39:09;;;;;;;;;;;;;;;10.73;45.00;102043.78;4941390;28;127058;-69
2022/12/17 17:41:35;;;;;;;;;;;;;;;10.73;44.73;102042.97;4904106;28;123012;-65
2022/12/17 17:44:06;;;;;;;;;;;;;;;10.72;44.89;102044.81;4933017;28;101763;-69
2022/12/17 17:46:32;;;;;;;;;;;;;;;10.73;44.62;102045.66;4936608;28;99489;-69
2022/12/17 17:48:59;;;;;;;;;;;;;;;10.73;44.61;102048.38;4899144;28;109533;-69
2022/12/17 17:51:29;;;;;;;;;;;;;;;10.72;44.67;102046.69;4938745;28;98084;-69
2022/12/17 17:53:55;;;;;;;;;;;;;;;10.72;44.81;102050.22;4918637;28;107674;-69
2022/12/17 17:56:40;;;;;;;;;;;;;;;10.72;44.47;102046.69;4902492;28;111109;-70
2022/12/17 17:59:07;;;;;;;;;;;;;;;10.73;44.41;102056.47;4936068;28;105748;-65
2022/12/17 18:01:44;;;;;;;;;;;;;;;10.72;44.92;102061.00;4933809;28;114175;-70
2022/12/17 18:04:11;;;;;;;;;;;;;;;10.72;44.58;102054.78;4935353;28;98160;-69
2022/12/17 18:06:37;;;;;;;;;;;;;;;10.72;44.88;102050.22;4917233;28;97801;-65
2022/12/17 18:09:03;;;;;;;;;;;;;;;10.73;44.55;102059.16;4914654;28;98035;-66
2022/12/17 18:11:29;;;;;;;;;;;;;;;10.72;44.54;102055.63;4915036;28;124059;-65
2022/12/17 18:13:56;;;;;;;;;;;;;;;10.72;44.97;102058.31;4916356;28;121875;-69
2022/12/17 18:16:35;;;;;;;;;;;;;;;10.73;44.95;102061.84;4918084;28;99766;-65
2022/12/17 18:19:12;;;;;;;;;;;;;;;10.72;44.93;102063.69;4950124;28;98156;-70
2022/12/17 18:21:38;;;;;;;;;;;;;;;10.73;44.64;102075.34;4950360;28;98159;-65
2022/12/17 18:24:06;;;;;;;;;;;;;;;10.72;44.75;102066.41;4948523;28;128026;-69
2022/12/17 18:26:35;;;;;;;;;;;;;;;10.73;44.72;102080.72;4919081;28;98330;-69
2022/12/17 18:29:01;;;;;;;;;;;;;;;10.72;44.63;102074.50;4925113;28;97943;-66
2022/12/17 18:31:28;;;;;;;;;;;;;;;10.73;44.88;102078.03;4917054;28;98638;-69
2022/12/17 18:33:56;;;;;;;;;;;;;;;10.73;44.49;102081.56;4913403;28;127523;-65
2022/12/17 18:36:32;;;;;;;;;;;;;;;10.71;44.57;102077.44;4915842;28;98366;-65
2022/12/17 18:39:03;;;;;;;;;;;;;;;10.72;44.63;102074.50;4918101;28;100765;-69
2022/12/17 18:44:14;;;;;;;;;;;;;;;10.72;44.49;102087.16;4930371;28;98275;-70
2022/12/17 18:46:40;;;;;;;;;;;;;;;10.71;44.55;102089.03;4929354;28;98024;-65
2022/12/17 18:49:10;;;;;;;;;;;;;;;10.71;44.50;102090.91;4951170;28;105616;-69
2022/12/17 18:51:37;;;;;;;;;;;;;;;10.73;44.53;102096.91;4938845;28;98208;-69
2022/12/17 18:54:05;;;;;;;;;;;;;;;10.73;44.73;102089.66;4921814;28;114914;-69
2022/12/17 18:56:31;;;;;;;;;;;;;;;10.74;44.76;102093.97;4956397;28;99078;-65
2022/12/17 18:58:57;;;;;;;;;;;;;;;10.75;44.59;102100.19;4924871;28;98055;-66
2022/12/17 19:01:33;;;;;;;;;;;;;;;10.75;44.51;102105.59;4925998;28;98234;-69
2022/12/17 19:04:07;;;;;;;;;;;;;;;10.75;44.87;102101.00;4939134;28;116219;-65
2022/12/17 19:06:33;;;;;;;;;;;;;;;10.76;44.45;102107.22;4919517;28;113234;-66
2022/12/17 19:08:59;;;;;;;;;;;;;;;10.76;44.70;102116.13;4924505;28;105334;-65
2022/12/17 19:11:25;;;;;;;;;;;;;;;10.77;44.88;102109.72;4942209;28;105520;-70
2022/12/17 19:13:51;;;;;;;;;;;;;;;10.78;44.73;102122.16;4938137;28;126573;-70
2022/12/17 19:16:21;;;;;;;;;;;;;;;10.79;44.68;102122.97;4917568;28;127705;-66
2022/12/17 19:18:55;;;;;;;;;;;;;;;10.79;44.46;102122.97;4919621;28;112856;-69
2022/12/17 19:21:22;;;;;;;;;;;;;;;10.80;44.79;102130.81;4940977;28;98763;-70
2022/12/17 19:23:48;;;;;;;;;;;;;;;10.81;44.47;102128.97;4924896;28;99676;-66
2022/12/17 19:26:18;;;;;;;;;;;;;;;10.81;44.72;102132.47;4923940;28;115931;-65
2022/12/17 19:28:47;;;;;;;;;;;;;;;10.82;44.80;102127.91;4937436;28;98551;-70
2022/12/17 19:31:13;;;;;;;;;;;;;;;10.82;44.80;102125.22;4941685;28;101530;-69
2022/12/17 19:33:39;;;;;;;;;;;;;;;10.82;44.58;102125.22;4940657;28;98572;-65
2022/12/17 19:36:12;;;;;;;;;;;;;;;10.82;44.23;102122.50;4955570;28;98342;-66
2022/12/17 19:38:38;;;;;;;;;;;;;;;10.82;44.70;102127.91;4929622;28;100185;-70
2022/12/17 19:41:13;;;;;;;;;;;;;;;10.83;44.52;102126.84;4963241;28;122765;-65
2022/12/17 19:43:40;;;;;;;;;;;;;;;10.82;44.87;102128.72;4973635;28;98070;-70
2022/12/17 19:46:11;;;;;;;;;;;;;;;10.83;44.42;102126.84;4978946;28;98659;-69
2022/12/17 19:48:37;;;;;;;;;;;;;;;10.84;44.73;102128.47;4974337;28;98253;-65
2022/12/17 19:51:04;;;;;;;;;;;;;;;10.82;44.27;102126.03;4958731;28;104373;-70
2022/12/17 19:53:30;;;;;;;;;;;;;;;10.84;44.85;102131.19;4960153;28;98375;-65
2022/12/17 19:56:03;;;;;;;;;;;;;;;10.85;44.70;102140.94;4956797;28;97999;-65
2022/12/17 19:58:29;;;;;;;;;;;;;;;10.85;44.70;102137.44;4956276;28;117073;-65
2022/12/17 20:00:55;;;;;;;;;;;;;;;10.86;44.47;102149.84;4959751;28;122990;-69
2022/12/17 20:03:21;;;;;;;;;;;;;;;10.86;44.69;102139.06;4956042;28;129826;-67
2022/12/17 20:05:47;;;;;;;;;;;;;;;10.86;44.48;102156.06;4953287;28;127733;-69
2022/12/17 20:08:13;;;;;;;;;;;;;;;10.87;44.42;102155.00;4929946;28;98254;-69
2022/12/17 20:10:39;;;;;;;;;;;;;;;10.87;44.45;102163.09;4944174;28;98118;-65
2022/12/17 20:13:05;;;;;;;;;;;;;;;10.87;44.84;102160.41;4942957;28;130291;-69
2022/12/17 20:15:31;;;;;;;;;;;;;;;10.88;44.45;102158.53;4944774;28;127290;-65
2022/12/17 20:17:57;;;;;;;;;;;;;;;10.88;44.47;102166.63;4922624;28;128811;-66
2022/12/17 20:20:22;;;;;;;;;;;;;;;10.88;44.49;102156.66;4959886;28;121648;-70
2022/12/17 20:22:48;;;;;;;;;;;;;;;10.88;44.74;102164.75;4960264;28;128026;-70
2022/12/17 20:25:14;;;;;;;;;;;;;;;10.89;44.43;102162.91;4940250;28;130540;-69
2022/12/17 20:27:40;;;;;;;;;;;;;;;10.90;44.68;102167.22;4941697;28;127686;-70
2022/12/17 20:30:07;;;;;;;;;;;;;;;10.88;44.49;102159.34;4941668;28;99487;-69
2022/12/17 20:32:33;;;;;;;;;;;;;;;10.90;44.42;102165.34;4957575;28;98172;-70
2022/12/17 20:34:58;;;;;;;;;;;;;;;10.90;44.71;102167.22;4976870;28;128611;-70
2022/12/17 20:37:24;;;;;;;;;;;;;;;10.91;44.58;102169.69;4956110;28;126813;-70
2022/12/17 20:39:50;;;;;;;;;;;;;;;10.91;44.40;102172.38;4941615;28;121738;-66
2022/12/17 20:42:16;;;;;;;;;;;;;;;10.92;44.89;102167.81;4938933;28;121757;-65
2022/12/17 20:44:43;;;;;;;;;;;;;;;10.91;44.43;102171.56;4938038;28;98283;-65
2022/12/17 20:47:09;;;;;;;;;;;;;;;10.92;44.73;102170.50;4937243;28;108067;-66
2022/12/17 20:49:35;;;;;;;;;;;;;;;10.92;44.29;102178.59;4970164;28;119828;-70
2022/12/17 20:52:01;;;;;;;;;;;;;;;10.91;44.64;102172.38;4956833;28;99857;-66
2022/12/17 20:54:27;;;;;;;;;;;;;;;10.91;44.57;102180.47;4968486;28;118572;-69
2022/12/17 20:56:53;;;;;;;;;;;;;;;10.91;44.54;102180.47;4956956;28;125975;-69
2022/12/17 20:59:19;;;;;;;;;;;;;;;10.91;44.55;102183.19;4970501;28;119554;-66
2022/12/17 21:01:45;;;;;;;;;;;;;;;10.90;44.79;102181.53;4941307;28;98021;-66
2022/12/17 21:04:14;;;;;;;;;;;;;;;10.92;44.34;102184.00;4940272;28;98637;-70
2022/12/17 21:06:42;;;;;;;;;;;;;;;10.92;44.47;102187.50;4954884;28;116168;-65
2022/12/17 21:09:08;;;;;;;;;;;;;;;10.91;44.67;102193.16;4924877;28;97994;-65
2022/12/17 21:11:34;;;;;;;;;;;;;;;10.91;44.37;102191.28;4954311;28;98461;-65
2022/12/17 21:14:11;;;;;;;;;;;;;;;10.91;44.94;102199.38;4955492;28;124222;-66
2022/12/17 21:16:37;;;;;;;;;;;;;;;10.91;44.62;102204.75;4952785;28;125642;-65
2022/12/17 21:19:03;;;;;;;;;;;;;;;10.92;44.72;102205.59;4957920;28;98047;-69
2022/12/17 21:21:31;;;;;;;;;;;;;;;10.91;44.75;102204.75;4958306;28;98056;-66
2022/12/17 21:23:57;;;;;;;;;;;;;;;10.92;44.36;102214.50;4955187;28;98570;-65
2022/12/17 21:26:23;;;;;;;;;;;;;;;10.92;44.67;102213.69;4955180;28;98178;-69
2022/12/17 21:28:50;;;;;;;;;;;;;;;10.92;44.64;102210.97;4956866;28;107983;-65
2022/12/17 21:31:27;;;;;;;;;;;;;;;10.93;44.48;102212.66;4938310;28;100028;-66
2022/12/17 21:33:54;;;;;;;;;;;;;;;10.92;44.32;102214.50;4941920;28;125984;-69
2022/12/17 21:36:20;;;;;;;;;;;;;;;10.94;44.51;102214.28;4957465;28;123899;-65
2022/12/17 21:38:46;;;;;;;;;;;;;;;10.93;44.70;102218.88;4967044;28;111682;-71
2022/12/17 21:41:14;;;;;;;;;;;;;;;10.95;44.76;102222.16;4957775;28;126082;-65
2022/12/17 21:43:40;;;;;;;;;;;;;;;10.94;44.49;102228.59;4957288;28;130266;-66
2022/12/17 21:46:07;;;;;;;;;;;;;;;10.94;44.41;102228.59;4956734;28;98053;-69
2022/12/17 21:48:34;;;;;;;;;;;;;;;10.94;44.75;102231.28;4953732;28;116471;-70
2022/12/17 21:51:02;;;;;;;;;;;;;;;10.95;44.71;102232.13;4956786;28;98653;-65
2022/12/17 21:53:28;;;;;;;;;;;;;;;10.94;44.94;102225.09;4957356;28;108048;-65
2022/12/17 21:56:02;;;;;;;;;;;;;;;10.95;44.46;102232.13;4953493;28;127364;-69
2022/12/17 21:58:28;;;;;;;;;;;;;;;10.94;44.34;102222.38;4955843;28;98150;-70
2022/12/17 22:00:54;;;;;;;;;;;;;;;10.93;44.80;102226.13;4960080;28;128757;-70
2022/12/17 22:03:19;;;;;;;;;;;;;;;10.93;44.75;102232.34;4939632;28;128507;-70
2022/12/17 22:05:45;;;;;;;;;;;;;;;10.93;44.56;102228.84;4957578;28;127571;-65
2022/12/17 22:08:11;;;;;;;;;;;;;;;10.92;44.90;102229.88;4937752;28;123707;-70
2022/12/17 22:10:40;;;;;;;;;;;;;;;10.93;44.71;102239.63;4940188;28;127208;-65
2022/12/17 22:15:53;;;;;;;;;;;;;;;10.92;44.49;102236.09;4959443;28;99934;-69
2022/12/17 22:18:19;;;;;;;;;;;;;;;10.92;44.39;102241.47;4943104;28;114011;-69
2022/12/17 22:20:54;;;;;;;;;;;;;;;10.92;44.41;102246.88;4949884;28;128017;-66
2022/12/17 22:23:20;;;;;;;;;;;;;;;10.92;44.51;102235.25;4940531;28;105811;-71
2022/12/17 22:25:46;;;;;;;;;;;;;;;10.92;44.27;102248.75;4954141;28;126889;-69
2022/12/17 22:28:12;;;;;;;;;;;;;;;10.92;44.89;102243.34;4952379;28;122029;-69
2022/12/17 22:33:22;;;;;;;;;;;;;;;10.92;44.35;102246.88;4950791;28;98279;-65
2022/12/17 22:35:49;;;;;;;;;;;;;;;10.93;44.42;102263.91;4954369;28;128759;-69
2022/12/17 22:38:15;;;;;;;;;;;;;;;10.92;44.49;102265.75;4960741;28;98098;-65
2022/12/17 22:40:41;;;;;;;;;;;;;;;10.92;44.44;102281.13;4959088;28;127247;-65
2022/12/17 22:45:58;;;;;;;;;;;;;;;10.90;44.73;102267.88;4958217;28;99542;-70
2022/12/17 22:48:23;;;;;;;;;;;;;;;10.91;44.34;102271.41;4943971;28;102491;-69
2022/12/17 22:50:49;;;;;;;;;;;;;;;10.90;44.30;102281.38;4942952;28;127725;-66
2022/12/17 22:53:15;;;;;;;;;;;;;;;10.91;44.77;102279.50;4941421;28;127682;-66
2022/12/17 22:55:41;;;;;;;;;;;;;;;10.91;44.68;102272.22;4976541;28;127215;-66
2022/12/17 22:58:07;;;;;;;;;;;;;;;10.91;44.33;102277.59;4963405;28;114799;-66
2022/12/17 23:00:34;;;;;;;;;;;;;;;10.92;44.68;102281.94;4945905;28;127451;-70
2022/12/17 23:03:00;;;;;;;;;;;;;;;10.91;44.25;102282.19;4958534;28;98016;-66
2022/12/17 23:05:26;;;;;;;;;;;;;;;10.92;44.46;102271.16;4962157;28;114625;-70
2022/12/17 23:07:52;;;;;;;;;;;;;;;10.92;44.66;102270.34;4979586;27;97943;-70
2022/12/17 23:10:19;;;;;;;;;;;;;;;10.92;44.24;102265.75;4944452;28;127673;-66
2022/12/17 23:12:51;;;;;;;;;;;;;;;10.93;44.35;102267.44;4967022;28;99510;-66
2022/12/17 23:15:22;;;;;;;;;;;;;;;10.92;44.56;102273.84;4945715;28;98146;-70
2022/12/17 23:17:48;;;;;;;;;;;;;;;10.93;44.62;102280.09;4973848;28;98044;-70
2022/12/17 23:20:14;;;;;;;;;;;;;;;10.94;44.77;102276.34;4941566;28;106835;-66
2022/12/17 23:22:40;;;;;;;;;;;;;;;10.94;44.71;102289.84;4958292;28;110089;-70
2022/12/17 23:25:06;;;;;;;;;;;;;;;10.94;44.74;102287.97;4960914;28;99274;-70
2022/12/17 23:27:32;;;;;;;;;;;;;;;10.94;44.51;102287.13;4957582;28;104760;-66
2022/12/17 23:29:58;;;;;;;;;;;;;;;10.94;44.64;102290.66;4955851;28;98483;-70
2022/12/17 23:32:24;;;;;;;;;;;;;;;10.95;44.58;102297.69;4946259;28;97923;-66
2022/12/17 23:34:50;;;;;;;;;;;;;;;10.96;44.38;102306.59;4976421;28;127873;-66
2022/12/17 23:37:16;;;;;;;;;;;;;;;10.95;44.37;102303.09;4959370;28;122791;-70
2022/12/17 23:39:42;;;;;;;;;;;;;;;10.96;44.72;102303.91;4941735;28;127729;-70
2022/12/17 23:42:08;;;;;;;;;;;;;;;10.96;44.28;102299.34;4941464;28;128502;-66
2022/12/17 23:44:34;;;;;;;;;;;;;;;10.96;44.51;102302.03;4940866;28;127876;-70
2022/12/17 23:46:59;;;;;;;;;;;;;;;10.98;44.32;102307.22;4956691;28;122227;-70
2022/12/17 23:49:25;;;;;;;;;;;;;;;10.97;44.52;102305.59;4957335;28;128986;-70
2022/12/17 23:51:51;;;;;;;;;;;;;;;10.98;44.66;102299.13;4956450;28;120973;-72
2022/12/17 23:54:17;;;;;;;;;;;;;;;10.98;44.46;102296.44;4958756;28;126711;-70
2022/12/17 23:56:44;;;;;;;;;;;;;;;10.98;44.71;102305.34;4940353;28;121571;-70
2022/12/17 23:59:10;;;;;;;;;;;;;;;10.98;44.47;102305.34;4960420;28;98401;-70
